sensor_id;sensor_type;location;lat;lon;timestamp;P1;durP1;ratioP1;P2;durP2;ratioP2
1831;SDS011;1680;48.106;11.708;2023-08-17T00:00:24;8.73;;;7.17;;
1831;SDS011;1680;48.106;11.708;2023-08-17T00:02:51;7.60;;;6.83;;
1831;SDS011;1680;48.106;11.708;2023-08-17T00:05:19;14.30;;;7.67;;
1831;SDS011;1680;48.106;11.708;2023-08-17T00:07:46;7.43;;;6.73;;
1831;SDS011;1680;48.106;11.708;2023-08-17T00:10:14;8.57;;;7.20;;
1831;SDS011;1680;48.106;11.708;2023-08-17T00:12:42;8.00;;;7.30;;
1831;SDS011;1680;48.106;11.708;2023-08-17T00:15:09;9.03;;;8.23;;
1831;SDS011;1680;48.106;11.708;2023-08-17T00:17:36;7.77;;;7.10;;
1831;SDS011;1680;48.106;11.708;2023-08-17T00:20:04;8.30;;;7.50;;
1831;SDS011;1680;48.106;11.708;2023-08-17T00:22:34;8.03;;;7.33;;
1831;SDS011;1680;48.106;11.708;2023-08-17T00:25:02;8.03;;;7.33;;
1831;SDS011;1680;48.106;11.708;2023-08-17T00:27:31;8.00;;;7.30;;
1831;SDS011;1680;48.106;11.708;2023-08-17T00:29:58;8.13;;;7.37;;
1831;SDS011;1680;48.106;11.708;2023-08-17T00:32:25;8.63;;;7.73;;
1831;SDS011;1680;48.106;11.708;2023-08-17T00:34:53;7.67;;;7.07;;
1831;SDS011;1680;48.106;11.708;2023-08-17T00:37:20;8.90;;;7.60;;
1831;SDS011;1680;48.106;11.708;2023-08-17T00:39:47;7.90;;;7.20;;
1831;SDS011;1680;48.106;11.708;2023-08-17T00:42:14;8.10;;;7.50;;
1831;SDS011;1680;48.106;11.708;2023-08-17T00:44:43;7.80;;;7.10;;
1831;SDS011;1680;48.106;11.708;2023-08-17T00:47:10;9.13;;;7.90;;
1831;SDS011;1680;48.106;11.708;2023-08-17T00:49:37;8.23;;;7.43;;
1831;SDS011;1680;48.106;11.708;2023-08-17T00:52:04;7.00;;;6.40;;
1831;SDS011;1680;48.106;11.708;2023-08-17T00:54:32;8.10;;;7.40;;
1831;SDS011;1680;48.106;11.708;2023-08-17T00:56:59;8.00;;;7.30;;
1831;SDS011;1680;48.106;11.708;2023-08-17T00:59:29;7.80;;;7.20;;
1831;SDS011;1680;48.106;11.708;2023-08-17T01:01:57;7.97;;;7.20;;
1831;SDS011;1680;48.106;11.708;2023-08-17T01:04:24;8.50;;;7.80;;
1831;SDS011;1680;48.106;11.708;2023-08-17T01:06:51;7.80;;;7.20;;
1831;SDS011;1680;48.106;11.708;2023-08-17T01:09:19;8.37;;;7.63;;
1831;SDS011;1680;48.106;11.708;2023-08-17T01:11:48;8.10;;;7.40;;
1831;SDS011;1680;48.106;11.708;2023-08-17T01:14:21;7.93;;;7.23;;
1831;SDS011;1680;48.106;11.708;2023-08-17T01:16:56;7.73;;;7.03;;
1831;SDS011;1680;48.106;11.708;2023-08-17T01:19:32;8.30;;;7.50;;
1831;SDS011;1680;48.106;11.708;2023-08-17T01:22:00;8.17;;;7.47;;
1831;SDS011;1680;48.106;11.708;2023-08-17T01:24:36;8.67;;;8.07;;
1831;SDS011;1680;48.106;11.708;2023-08-17T01:27:03;7.90;;;7.17;;
1831;SDS011;1680;48.106;11.708;2023-08-17T01:29:30;8.30;;;7.67;;
1831;SDS011;1680;48.106;11.708;2023-08-17T01:32:00;9.17;;;8.37;;
1831;SDS011;1680;48.106;11.708;2023-08-17T01:34:35;7.73;;;7.13;;
1831;SDS011;1680;48.106;11.708;2023-08-17T01:37:07;8.40;;;7.67;;
1831;SDS011;1680;48.106;11.708;2023-08-17T01:39:39;8.53;;;7.83;;
1831;SDS011;1680;48.106;11.708;2023-08-17T01:42:10;8.40;;;7.77;;
1831;SDS011;1680;48.106;11.708;2023-08-17T01:44:39;7.70;;;7.07;;
1831;SDS011;1680;48.106;11.708;2023-08-17T01:47:06;8.13;;;7.33;;
1831;SDS011;1680;48.106;11.708;2023-08-17T01:49:34;7.87;;;7.17;;
1831;SDS011;1680;48.106;11.708;2023-08-17T01:52:01;7.83;;;7.07;;
1831;SDS011;1680;48.106;11.708;2023-08-17T01:54:29;8.20;;;7.40;;
1831;SDS011;1680;48.106;11.708;2023-08-17T01:56:57;8.47;;;7.87;;
1831;SDS011;1680;48.106;11.708;2023-08-17T01:59:24;9.00;;;8.20;;
1831;SDS011;1680;48.106;11.708;2023-08-17T02:01:51;7.83;;;7.13;;
1831;SDS011;1680;48.106;11.708;2023-08-17T02:04:19;8.50;;;7.70;;
1831;SDS011;1680;48.106;11.708;2023-08-17T02:06:46;8.47;;;7.67;;
1831;SDS011;1680;48.106;11.708;2023-08-17T02:09:13;7.97;;;7.30;;
1831;SDS011;1680;48.106;11.708;2023-08-17T02:11:40;8.87;;;8.17;;
1831;SDS011;1680;48.106;11.708;2023-08-17T02:14:08;8.50;;;7.80;;
1831;SDS011;1680;48.106;11.708;2023-08-17T02:16:36;8.00;;;7.40;;
1831;SDS011;1680;48.106;11.708;2023-08-17T02:19:03;8.77;;;7.50;;
1831;SDS011;1680;48.106;11.708;2023-08-17T02:21:30;8.93;;;8.13;;
1831;SDS011;1680;48.106;11.708;2023-08-17T02:23:57;8.63;;;7.90;;
1831;SDS011;1680;48.106;11.708;2023-08-17T02:26:24;7.97;;;7.27;;
1831;SDS011;1680;48.106;11.708;2023-08-17T02:28:52;8.10;;;7.47;;
1831;SDS011;1680;48.106;11.708;2023-08-17T02:31:20;8.40;;;7.60;;
1831;SDS011;1680;48.106;11.708;2023-08-17T02:33:47;7.50;;;6.90;;
1831;SDS011;1680;48.106;11.708;2023-08-17T02:36:14;8.07;;;7.43;;
1831;SDS011;1680;48.106;11.708;2023-08-17T02:38:41;8.30;;;7.60;;
1831;SDS011;1680;48.106;11.708;2023-08-17T02:41:08;8.93;;;8.13;;
1831;SDS011;1680;48.106;11.708;2023-08-17T02:43:36;8.03;;;7.33;;
1831;SDS011;1680;48.106;11.708;2023-08-17T02:46:03;8.50;;;7.80;;
1831;SDS011;1680;48.106;11.708;2023-08-17T02:48:33;8.20;;;7.43;;
1831;SDS011;1680;48.106;11.708;2023-08-17T02:51:00;8.33;;;7.30;;
1831;SDS011;1680;48.106;11.708;2023-08-17T02:53:27;8.20;;;7.50;;
1831;SDS011;1680;48.106;11.708;2023-08-17T02:55:55;7.77;;;7.00;;
1831;SDS011;1680;48.106;11.708;2023-08-17T02:58:22;8.63;;;7.93;;
1831;SDS011;1680;48.106;11.708;2023-08-17T03:00:50;8.17;;;7.47;;
1831;SDS011;1680;48.106;11.708;2023-08-17T03:03:18;8.83;;;8.00;;
1831;SDS011;1680;48.106;11.708;2023-08-17T03:05:47;8.90;;;8.20;;
1831;SDS011;1680;48.106;11.708;2023-08-17T03:08:14;9.37;;;8.57;;
1831;SDS011;1680;48.106;11.708;2023-08-17T03:10:41;8.97;;;8.17;;
1831;SDS011;1680;48.106;11.708;2023-08-17T03:13:08;8.60;;;7.90;;
1831;SDS011;1680;48.106;11.708;2023-08-17T03:15:35;8.23;;;7.47;;
1831;SDS011;1680;48.106;11.708;2023-08-17T03:18:05;8.37;;;7.77;;
1831;SDS011;1680;48.106;11.708;2023-08-17T03:20:32;9.03;;;8.33;;
1831;SDS011;1680;48.106;11.708;2023-08-17T03:23:00;8.50;;;7.80;;
1831;SDS011;1680;48.106;11.708;2023-08-17T03:25:31;9.40;;;8.60;;
1831;SDS011;1680;48.106;11.708;2023-08-17T03:27:58;9.00;;;8.20;;
1831;SDS011;1680;48.106;11.708;2023-08-17T03:30:25;8.07;;;7.30;;
1831;SDS011;1680;48.106;11.708;2023-08-17T03:32:53;8.20;;;7.60;;
1831;SDS011;1680;48.106;11.708;2023-08-17T03:35:20;9.57;;;8.70;;
1831;SDS011;1680;48.106;11.708;2023-08-17T03:37:47;9.57;;;8.70;;
1831;SDS011;1680;48.106;11.708;2023-08-17T03:40:15;9.00;;;8.20;;
1831;SDS011;1680;48.106;11.708;2023-08-17T03:42:43;8.80;;;8.00;;
1831;SDS011;1680;48.106;11.708;2023-08-17T03:45:10;9.90;;;7.90;;
1831;SDS011;1680;48.106;11.708;2023-08-17T03:47:37;9.67;;;8.77;;
1831;SDS011;1680;48.106;11.708;2023-08-17T03:50:04;9.00;;;8.23;;
1831;SDS011;1680;48.106;11.708;2023-08-17T03:52:32;8.97;;;8.20;;
1831;SDS011;1680;48.106;11.708;2023-08-17T03:54:59;8.20;;;7.43;;
1831;SDS011;1680;48.106;11.708;2023-08-17T03:57:28;8.53;;;7.83;;
1831;SDS011;1680;48.106;11.708;2023-08-17T03:59:55;8.33;;;7.60;;
1831;SDS011;1680;48.106;11.708;2023-08-17T04:02:22;9.93;;;8.20;;
1831;SDS011;1680;48.106;11.708;2023-08-17T04:04:49;8.60;;;7.90;;
1831;SDS011;1680;48.106;11.708;2023-08-17T04:07:20;8.57;;;7.80;;
1831;SDS011;1680;48.106;11.708;2023-08-17T04:09:48;8.90;;;8.00;;
1831;SDS011;1680;48.106;11.708;2023-08-17T04:12:15;9.23;;;8.47;;
1831;SDS011;1680;48.106;11.708;2023-08-17T04:14:44;9.30;;;8.40;;
1831;SDS011;1680;48.106;11.708;2023-08-17T04:17:11;9.00;;;8.30;;
1831;SDS011;1680;48.106;11.708;2023-08-17T04:19:38;8.47;;;7.77;;
1831;SDS011;1680;48.106;11.708;2023-08-17T04:22:05;9.43;;;8.63;;
1831;SDS011;1680;48.106;11.708;2023-08-17T04:24:32;9.70;;;8.70;;
1831;SDS011;1680;48.106;11.708;2023-08-17T04:27:00;8.70;;;7.90;;
1831;SDS011;1680;48.106;11.708;2023-08-17T04:29:27;8.73;;;7.97;;
1831;SDS011;1680;48.106;11.708;2023-08-17T04:31:55;10.30;;;9.17;;
1831;SDS011;1680;48.106;11.708;2023-08-17T04:34:22;8.93;;;8.13;;
1831;SDS011;1680;48.106;11.708;2023-08-17T04:36:49;8.87;;;8.00;;
1831;SDS011;1680;48.106;11.708;2023-08-17T04:39:16;9.40;;;7.73;;
1831;SDS011;1680;48.106;11.708;2023-08-17T04:41:43;9.33;;;8.53;;
1831;SDS011;1680;48.106;11.708;2023-08-17T04:44:10;8.80;;;8.00;;
1831;SDS011;1680;48.106;11.708;2023-08-17T04:46:37;10.53;;;7.73;;
1831;SDS011;1680;48.106;11.708;2023-08-17T04:49:06;8.30;;;7.50;;
1831;SDS011;1680;48.106;11.708;2023-08-17T04:51:33;9.63;;;8.60;;
1831;SDS011;1680;48.106;11.708;2023-08-17T04:54:00;9.73;;;8.47;;
1831;SDS011;1680;48.106;11.708;2023-08-17T04:56:27;8.23;;;7.43;;
1831;SDS011;1680;48.106;11.708;2023-08-17T04:58:54;9.13;;;8.43;;
1831;SDS011;1680;48.106;11.708;2023-08-17T05:01:21;9.30;;;8.50;;
1831;SDS011;1680;48.106;11.708;2023-08-17T05:03:48;8.17;;;7.47;;
1831;SDS011;1680;48.106;11.708;2023-08-17T05:06:18;9.80;;;9.00;;
1831;SDS011;1680;48.106;11.708;2023-08-17T05:08:45;9.40;;;8.63;;
1831;SDS011;1680;48.106;11.708;2023-08-17T05:11:12;9.53;;;8.83;;
1831;SDS011;1680;48.106;11.708;2023-08-17T05:13:39;9.40;;;8.50;;
1831;SDS011;1680;48.106;11.708;2023-08-17T05:16:06;9.63;;;8.83;;
1831;SDS011;1680;48.106;11.708;2023-08-17T05:18:33;9.50;;;8.70;;
1831;SDS011;1680;48.106;11.708;2023-08-17T05:21:00;9.07;;;8.30;;
1831;SDS011;1680;48.106;11.708;2023-08-17T05:23:29;9.60;;;8.90;;
1831;SDS011;1680;48.106;11.708;2023-08-17T05:25:56;10.00;;;9.10;;
1831;SDS011;1680;48.106;11.708;2023-08-17T05:28:23;8.60;;;7.90;;
1831;SDS011;1680;48.106;11.708;2023-08-17T05:30:50;9.00;;;8.20;;
1831;SDS011;1680;48.106;11.708;2023-08-17T05:33:18;11.30;;;9.90;;
1831;SDS011;1680;48.106;11.708;2023-08-17T05:35:45;9.10;;;8.40;;
1831;SDS011;1680;48.106;11.708;2023-08-17T05:38:12;9.70;;;8.90;;
1831;SDS011;1680;48.106;11.708;2023-08-17T05:40:41;10.17;;;9.37;;
1831;SDS011;1680;48.106;11.708;2023-08-17T05:43:08;9.90;;;8.90;;
1831;SDS011;1680;48.106;11.708;2023-08-17T05:45:35;8.80;;;8.10;;
1831;SDS011;1680;48.106;11.708;2023-08-17T05:48:03;9.47;;;8.57;;
1831;SDS011;1680;48.106;11.708;2023-08-17T05:50:30;8.73;;;8.03;;
1831;SDS011;1680;48.106;11.708;2023-08-17T05:52:57;9.90;;;9.07;;
1831;SDS011;1680;48.106;11.708;2023-08-17T05:55:24;9.13;;;8.33;;
1831;SDS011;1680;48.106;11.708;2023-08-17T05:57:53;9.80;;;8.90;;
1831;SDS011;1680;48.106;11.708;2023-08-17T06:00:20;9.53;;;8.77;;
1831;SDS011;1680;48.106;11.708;2023-08-17T06:02:47;9.63;;;8.93;;
1831;SDS011;1680;48.106;11.708;2023-08-17T06:05:16;9.53;;;8.73;;
1831;SDS011;1680;48.106;11.708;2023-08-17T06:07:44;9.20;;;8.53;;
1831;SDS011;1680;48.106;11.708;2023-08-17T06:10:11;8.87;;;8.07;;
1831;SDS011;1680;48.106;11.708;2023-08-17T06:12:38;8.87;;;8.17;;
1831;SDS011;1680;48.106;11.708;2023-08-17T06:15:07;9.50;;;8.60;;
1831;SDS011;1680;48.106;11.708;2023-08-17T06:17:35;9.37;;;8.60;;
1831;SDS011;1680;48.106;11.708;2023-08-17T06:20:02;8.77;;;8.00;;
1831;SDS011;1680;48.106;11.708;2023-08-17T06:22:30;10.00;;;9.00;;
1831;SDS011;1680;48.106;11.708;2023-08-17T06:24:57;9.50;;;8.77;;
1831;SDS011;1680;48.106;11.708;2023-08-17T06:27:24;9.30;;;8.50;;
1831;SDS011;1680;48.106;11.708;2023-08-17T06:29:51;9.40;;;8.60;;
1831;SDS011;1680;48.106;11.708;2023-08-17T06:32:20;9.23;;;8.53;;
1831;SDS011;1680;48.106;11.708;2023-08-17T06:34:47;8.90;;;8.20;;
1831;SDS011;1680;48.106;11.708;2023-08-17T06:37:14;9.37;;;8.23;;
1831;SDS011;1680;48.106;11.708;2023-08-17T06:39:41;8.57;;;7.77;;
1831;SDS011;1680;48.106;11.708;2023-08-17T06:42:08;8.53;;;7.73;;
1831;SDS011;1680;48.106;11.708;2023-08-17T06:44:35;8.93;;;7.33;;
1831;SDS011;1680;48.106;11.708;2023-08-17T06:47:02;8.80;;;8.10;;
1831;SDS011;1680;48.106;11.708;2023-08-17T06:49:32;9.00;;;8.30;;
1831;SDS011;1680;48.106;11.708;2023-08-17T06:51:59;9.10;;;8.20;;
1831;SDS011;1680;48.106;11.708;2023-08-17T06:54:26;8.47;;;7.73;;
1831;SDS011;1680;48.106;11.708;2023-08-17T06:56:57;8.20;;;7.40;;
1831;SDS011;1680;48.106;11.708;2023-08-17T06:59:24;8.40;;;7.70;;
1831;SDS011;1680;48.106;11.708;2023-08-17T07:01:51;7.83;;;7.33;;
1831;SDS011;1680;48.106;11.708;2023-08-17T07:04:19;8.40;;;7.60;;
1831;SDS011;1680;48.106;11.708;2023-08-17T07:06:47;9.67;;;7.47;;
1831;SDS011;1680;48.106;11.708;2023-08-17T07:09:15;9.30;;;8.10;;
1831;SDS011;1680;48.106;11.708;2023-08-17T07:11:42;9.07;;;8.37;;
1831;SDS011;1680;48.106;11.708;2023-08-17T07:14:09;7.40;;;6.80;;
1831;SDS011;1680;48.106;11.708;2023-08-17T07:16:37;9.00;;;8.13;;
1831;SDS011;1680;48.106;11.708;2023-08-17T07:19:04;8.67;;;7.93;;
1831;SDS011;1680;48.106;11.708;2023-08-17T07:21:31;8.60;;;7.90;;
1831;SDS011;1680;48.106;11.708;2023-08-17T07:24:08;8.77;;;7.87;;
1831;SDS011;1680;48.106;11.708;2023-08-17T07:26:38;9.27;;;8.40;;
1831;SDS011;1680;48.106;11.708;2023-08-17T07:29:05;9.20;;;8.40;;
1831;SDS011;1680;48.106;11.708;2023-08-17T07:31:33;8.80;;;8.10;;
1831;SDS011;1680;48.106;11.708;2023-08-17T07:34:02;8.73;;;8.13;;
1831;SDS011;1680;48.106;11.708;2023-08-17T07:36:30;9.10;;;8.17;;
1831;SDS011;1680;48.106;11.708;2023-08-17T07:38:57;8.23;;;7.70;;
1831;SDS011;1680;48.106;11.708;2023-08-17T07:41:26;8.60;;;7.80;;
1831;SDS011;1680;48.106;11.708;2023-08-17T07:43:53;8.47;;;7.67;;
1831;SDS011;1680;48.106;11.708;2023-08-17T07:46:20;8.93;;;8.27;;
1831;SDS011;1680;48.106;11.708;2023-08-17T07:48:47;8.23;;;7.53;;
1831;SDS011;1680;48.106;11.708;2023-08-17T07:51:15;9.00;;;8.30;;
1831;SDS011;1680;48.106;11.708;2023-08-17T07:53:42;9.20;;;8.30;;
1831;SDS011;1680;48.106;11.708;2023-08-17T07:56:09;8.93;;;8.23;;
1831;SDS011;1680;48.106;11.708;2023-08-17T07:58:38;9.33;;;8.60;;
1831;SDS011;1680;48.106;11.708;2023-08-17T08:01:05;9.53;;;8.63;;
1831;SDS011;1680;48.106;11.708;2023-08-17T08:03:32;9.37;;;8.57;;
1831;SDS011;1680;48.106;11.708;2023-08-17T08:05:59;8.47;;;7.87;;
1831;SDS011;1680;48.106;11.708;2023-08-17T08:08:26;8.43;;;7.77;;
1831;SDS011;1680;48.106;11.708;2023-08-17T08:10:53;8.37;;;7.67;;
1831;SDS011;1680;48.106;11.708;2023-08-17T08:13:21;9.67;;;8.50;;
1831;SDS011;1680;48.106;11.708;2023-08-17T08:15:49;9.10;;;8.30;;
1831;SDS011;1680;48.106;11.708;2023-08-17T08:18:16;8.20;;;7.40;;
1831;SDS011;1680;48.106;11.708;2023-08-17T08:20:43;7.83;;;7.33;;
1831;SDS011;1680;48.106;11.708;2023-08-17T08:23:11;8.30;;;7.70;;
1831;SDS011;1680;48.106;11.708;2023-08-17T08:25:38;8.43;;;7.83;;
1831;SDS011;1680;48.106;11.708;2023-08-17T08:28:05;7.50;;;6.97;;
1831;SDS011;1680;48.106;11.708;2023-08-17T08:30:33;8.27;;;7.57;;
1831;SDS011;1680;48.106;11.708;2023-08-17T08:33:02;8.53;;;7.73;;
1831;SDS011;1680;48.106;11.708;2023-08-17T08:35:30;8.50;;;7.80;;
1831;SDS011;1680;48.106;11.708;2023-08-17T08:37:58;8.33;;;7.60;;
1831;SDS011;1680;48.106;11.708;2023-08-17T08:40:27;8.17;;;7.50;;
1831;SDS011;1680;48.106;11.708;2023-08-17T08:42:55;7.93;;;7.23;;
1831;SDS011;1680;48.106;11.708;2023-08-17T08:45:22;8.63;;;8.03;;
1831;SDS011;1680;48.106;11.708;2023-08-17T08:47:50;8.53;;;7.83;;
1831;SDS011;1680;48.106;11.708;2023-08-17T08:50:20;9.00;;;8.17;;
1831;SDS011;1680;48.106;11.708;2023-08-17T08:52:50;8.27;;;7.67;;
1831;SDS011;1680;48.106;11.708;2023-08-17T08:55:26;8.83;;;8.17;;
1831;SDS011;1680;48.106;11.708;2023-08-17T08:57:56;8.57;;;7.97;;
1831;SDS011;1680;48.106;11.708;2023-08-17T09:00:24;8.00;;;7.40;;
1831;SDS011;1680;48.106;11.708;2023-08-17T09:02:52;8.40;;;7.80;;
1831;SDS011;1680;48.106;11.708;2023-08-17T09:05:21;7.80;;;7.20;;
1831;SDS011;1680;48.106;11.708;2023-08-17T09:07:49;8.47;;;7.67;;
1831;SDS011;1680;48.106;11.708;2023-08-17T09:10:16;8.17;;;7.50;;
1831;SDS011;1680;48.106;11.708;2023-08-17T09:12:45;8.50;;;7.80;;
1831;SDS011;1680;48.106;11.708;2023-08-17T09:15:13;8.60;;;7.87;;
1831;SDS011;1680;48.106;11.708;2023-08-17T09:17:40;7.77;;;7.17;;
1831;SDS011;1680;48.106;11.708;2023-08-17T09:20:08;7.70;;;7.00;;
1831;SDS011;1680;48.106;11.708;2023-08-17T09:22:38;8.33;;;7.60;;
1831;SDS011;1680;48.106;11.708;2023-08-17T09:25:06;8.17;;;7.57;;
1831;SDS011;1680;48.106;11.708;2023-08-17T09:27:34;7.13;;;6.53;;
1831;SDS011;1680;48.106;11.708;2023-08-17T09:30:03;7.50;;;7.00;;
1831;SDS011;1680;48.106;11.708;2023-08-17T09:32:31;7.23;;;6.73;;
1831;SDS011;1680;48.106;11.708;2023-08-17T09:35:00;9.60;;;7.60;;
1831;SDS011;1680;48.106;11.708;2023-08-17T09:37:28;7.40;;;6.83;;
1831;SDS011;1680;48.106;11.708;2023-08-17T09:39:57;6.73;;;6.23;;
1831;SDS011;1680;48.106;11.708;2023-08-17T09:42:24;7.70;;;7.20;;
1831;SDS011;1680;48.106;11.708;2023-08-17T09:44:52;7.70;;;6.97;;
1831;SDS011;1680;48.106;11.708;2023-08-17T09:47:21;6.60;;;6.20;;
1831;SDS011;1680;48.106;11.708;2023-08-17T09:49:48;7.43;;;6.90;;
1831;SDS011;1680;48.106;11.708;2023-08-17T09:52:16;8.90;;;6.40;;
1831;SDS011;1680;48.106;11.708;2023-08-17T09:54:43;7.33;;;6.63;;
1831;SDS011;1680;48.106;11.708;2023-08-17T09:57:15;6.83;;;6.33;;
1831;SDS011;1680;48.106;11.708;2023-08-17T09:59:43;7.20;;;6.70;;
1831;SDS011;1680;48.106;11.708;2023-08-17T10:02:12;7.57;;;6.97;;
1831;SDS011;1680;48.106;11.708;2023-08-17T10:04:44;7.17;;;6.67;;
1831;SDS011;1680;48.106;11.708;2023-08-17T10:07:17;7.40;;;6.70;;
1831;SDS011;1680;48.106;11.708;2023-08-17T10:09:48;6.80;;;6.07;;
1831;SDS011;1680;48.106;11.708;2023-08-17T10:12:26;7.23;;;6.60;;
1831;SDS011;1680;48.106;11.708;2023-08-17T10:14:55;7.30;;;6.70;;
1831;SDS011;1680;48.106;11.708;2023-08-17T10:17:26;7.67;;;6.97;;
1831;SDS011;1680;48.106;11.708;2023-08-17T10:19:58;7.00;;;6.50;;
1831;SDS011;1680;48.106;11.708;2023-08-17T10:22:26;7.20;;;6.70;;
1831;SDS011;1680;48.106;11.708;2023-08-17T10:24:57;7.03;;;6.63;;
1831;SDS011;1680;48.106;11.708;2023-08-17T10:27:28;8.10;;;7.40;;
1831;SDS011;1680;48.106;11.708;2023-08-17T10:29:57;7.97;;;7.27;;
1831;SDS011;1680;48.106;11.708;2023-08-17T10:32:25;8.03;;;7.50;;
1831;SDS011;1680;48.106;11.708;2023-08-17T10:34:53;8.70;;;8.07;;
1831;SDS011;1680;48.106;11.708;2023-08-17T10:37:20;8.17;;;7.63;;
1831;SDS011;1680;48.106;11.708;2023-08-17T10:39:49;8.27;;;7.57;;
1831;SDS011;1680;48.106;11.708;2023-08-17T10:42:30;8.80;;;8.20;;
1831;SDS011;1680;48.106;11.708;2023-08-17T10:44:59;9.33;;;8.63;;
1831;SDS011;1680;48.106;11.708;2023-08-17T10:47:29;8.73;;;7.97;;
1831;SDS011;1680;48.106;11.708;2023-08-17T10:49:58;9.00;;;8.27;;
1831;SDS011;1680;48.106;11.708;2023-08-17T10:52:27;8.53;;;7.93;;
1831;SDS011;1680;48.106;11.708;2023-08-17T10:54:55;8.80;;;8.10;;
1831;SDS011;1680;48.106;11.708;2023-08-17T10:57:31;8.67;;;8.03;;
1831;SDS011;1680;48.106;11.708;2023-08-17T11:02:52;8.73;;;7.93;;
1831;SDS011;1680;48.106;11.708;2023-08-17T11:05:36;8.63;;;8.03;;
1831;SDS011;1680;48.106;11.708;2023-08-17T11:08:04;8.33;;;7.73;;
1831;SDS011;1680;48.106;11.708;2023-08-17T11:10:32;8.80;;;8.00;;
1831;SDS011;1680;48.106;11.708;2023-08-17T11:13:01;8.07;;;7.47;;
1831;SDS011;1680;48.106;11.708;2023-08-17T11:15:34;8.57;;;7.87;;
1831;SDS011;1680;48.106;11.708;2023-08-17T11:18:04;8.83;;;8.23;;
1831;SDS011;1680;48.106;11.708;2023-08-17T11:20:32;9.70;;;8.90;;
1831;SDS011;1680;48.106;11.708;2023-08-17T11:23:00;9.50;;;8.80;;
1831;SDS011;1680;48.106;11.708;2023-08-17T11:25:27;9.50;;;8.80;;
1831;SDS011;1680;48.106;11.708;2023-08-17T11:27:55;9.17;;;8.57;;
1831;SDS011;1680;48.106;11.708;2023-08-17T11:30:23;9.37;;;8.57;;
1831;SDS011;1680;48.106;11.708;2023-08-17T11:32:52;9.20;;;8.60;;
1831;SDS011;1680;48.106;11.708;2023-08-17T11:35:20;10.27;;;9.40;;
1831;SDS011;1680;48.106;11.708;2023-08-17T11:37:48;9.23;;;8.63;;
1831;SDS011;1680;48.106;11.708;2023-08-17T11:40:15;9.47;;;8.70;;
1831;SDS011;1680;48.106;11.708;2023-08-17T11:42:43;9.47;;;8.77;;
1831;SDS011;1680;48.106;11.708;2023-08-17T11:45:11;9.80;;;9.00;;
1831;SDS011;1680;48.106;11.708;2023-08-17T11:47:40;10.80;;;10.07;;
1831;SDS011;1680;48.106;11.708;2023-08-17T11:50:09;10.77;;;9.87;;
1831;SDS011;1680;48.106;11.708;2023-08-17T11:52:38;11.07;;;10.07;;
1831;SDS011;1680;48.106;11.708;2023-08-17T11:55:05;10.37;;;9.57;;
1831;SDS011;1680;48.106;11.708;2023-08-17T11:57:35;10.80;;;10.00;;
1831;SDS011;1680;48.106;11.708;2023-08-17T12:00:03;11.40;;;10.27;;
1831;SDS011;1680;48.106;11.708;2023-08-17T12:02:32;10.07;;;9.30;;
1831;SDS011;1680;48.106;11.708;2023-08-17T12:05:04;9.97;;;9.27;;
1831;SDS011;1680;48.106;11.708;2023-08-17T12:07:32;9.93;;;9.20;;
1831;SDS011;1680;48.106;11.708;2023-08-17T12:09:59;9.97;;;9.03;;
1831;SDS011;1680;48.106;11.708;2023-08-17T12:12:28;9.77;;;8.90;;
1831;SDS011;1680;48.106;11.708;2023-08-17T12:14:56;9.63;;;8.97;;
1831;SDS011;1680;48.106;11.708;2023-08-17T12:17:24;10.20;;;9.30;;
1831;SDS011;1680;48.106;11.708;2023-08-17T12:19:54;8.97;;;8.27;;
1831;SDS011;1680;48.106;11.708;2023-08-17T12:22:24;10.30;;;9.60;;
1831;SDS011;1680;48.106;11.708;2023-08-17T12:24:52;9.53;;;8.87;;
1831;SDS011;1680;48.106;11.708;2023-08-17T12:27:21;10.63;;;9.83;;
1831;SDS011;1680;48.106;11.708;2023-08-17T12:29:50;9.30;;;8.70;;
1831;SDS011;1680;48.106;11.708;2023-08-17T12:32:18;8.93;;;8.33;;
1831;SDS011;1680;48.106;11.708;2023-08-17T12:34:46;10.00;;;9.13;;
1831;SDS011;1680;48.106;11.708;2023-08-17T12:37:18;8.90;;;8.30;;
1831;SDS011;1680;48.106;11.708;2023-08-17T12:39:47;9.30;;;8.60;;
1831;SDS011;1680;48.106;11.708;2023-08-17T12:42:15;9.73;;;9.00;;
1831;SDS011;1680;48.106;11.708;2023-08-17T12:44:43;9.30;;;8.70;;
1831;SDS011;1680;48.106;11.708;2023-08-17T12:47:10;8.90;;;8.30;;
1831;SDS011;1680;48.106;11.708;2023-08-17T12:49:37;8.63;;;7.93;;
1831;SDS011;1680;48.106;11.708;2023-08-17T12:52:05;8.87;;;8.27;;
1831;SDS011;1680;48.106;11.708;2023-08-17T12:54:32;9.50;;;8.80;;
1831;SDS011;1680;48.106;11.708;2023-08-17T12:57:00;9.10;;;8.40;;
1831;SDS011;1680;48.106;11.708;2023-08-17T12:59:28;9.77;;;9.10;;
1831;SDS011;1680;48.106;11.708;2023-08-17T13:01:55;9.10;;;8.50;;
1831;SDS011;1680;48.106;11.708;2023-08-17T13:04:22;9.10;;;8.33;;
1831;SDS011;1680;48.106;11.708;2023-08-17T13:06:49;8.47;;;7.87;;
1831;SDS011;1680;48.106;11.708;2023-08-17T13:09:16;8.87;;;8.17;;
1831;SDS011;1680;48.106;11.708;2023-08-17T13:11:44;8.10;;;7.60;;
1831;SDS011;1680;48.106;11.708;2023-08-17T13:14:13;9.60;;;8.80;;
1831;SDS011;1680;48.106;11.708;2023-08-17T13:16:41;8.43;;;7.83;;
1831;SDS011;1680;48.106;11.708;2023-08-17T13:19:08;8.37;;;7.63;;
1831;SDS011;1680;48.106;11.708;2023-08-17T13:21:35;8.20;;;7.60;;
1831;SDS011;1680;48.106;11.708;2023-08-17T13:24:02;9.10;;;8.40;;
1831;SDS011;1680;48.106;11.708;2023-08-17T13:26:30;7.87;;;7.27;;
1831;SDS011;1680;48.106;11.708;2023-08-17T13:28:57;8.33;;;7.70;;
1831;SDS011;1680;48.106;11.708;2023-08-17T13:31:25;9.27;;;8.57;;
1831;SDS011;1680;48.106;11.708;2023-08-17T13:33:52;8.40;;;7.90;;
1831;SDS011;1680;48.106;11.708;2023-08-17T13:36:20;8.10;;;7.50;;
1831;SDS011;1680;48.106;11.708;2023-08-17T13:38:47;8.73;;;8.13;;
1831;SDS011;1680;48.106;11.708;2023-08-17T13:41:14;9.97;;;9.00;;
1831;SDS011;1680;48.106;11.708;2023-08-17T13:43:41;8.37;;;7.77;;
1831;SDS011;1680;48.106;11.708;2023-08-17T13:46:08;9.53;;;8.73;;
1831;SDS011;1680;48.106;11.708;2023-08-17T13:48:37;9.70;;;9.00;;
1831;SDS011;1680;48.106;11.708;2023-08-17T13:51:05;9.50;;;8.80;;
1831;SDS011;1680;48.106;11.708;2023-08-17T13:53:32;9.23;;;8.53;;
1831;SDS011;1680;48.106;11.708;2023-08-17T13:55:59;9.27;;;8.67;;
1831;SDS011;1680;48.106;11.708;2023-08-17T13:58:27;9.23;;;8.43;;
1831;SDS011;1680;48.106;11.708;2023-08-17T14:00:54;9.43;;;8.73;;
1831;SDS011;1680;48.106;11.708;2023-08-17T14:03:22;9.13;;;8.53;;
1831;SDS011;1680;48.106;11.708;2023-08-17T14:05:51;9.70;;;8.93;;
1831;SDS011;1680;48.106;11.708;2023-08-17T14:08:18;9.30;;;8.50;;
1831;SDS011;1680;48.106;11.708;2023-08-17T14:10:46;9.63;;;8.73;;
1831;SDS011;1680;48.106;11.708;2023-08-17T14:13:13;9.83;;;9.13;;
1831;SDS011;1680;48.106;11.708;2023-08-17T14:15:41;9.33;;;8.63;;
1831;SDS011;1680;48.106;11.708;2023-08-17T14:18:08;10.30;;;9.50;;
1831;SDS011;1680;48.106;11.708;2023-08-17T14:20:35;9.73;;;9.03;;
1831;SDS011;1680;48.106;11.708;2023-08-17T14:23:03;8.97;;;8.37;;
1831;SDS011;1680;48.106;11.708;2023-08-17T14:25:31;9.90;;;9.20;;
1831;SDS011;1680;48.106;11.708;2023-08-17T14:27:58;10.47;;;9.67;;
1831;SDS011;1680;48.106;11.708;2023-08-17T14:30:25;10.20;;;9.33;;
1831;SDS011;1680;48.106;11.708;2023-08-17T14:32:52;9.30;;;8.50;;
1831;SDS011;1680;48.106;11.708;2023-08-17T14:35:19;10.10;;;9.30;;
1831;SDS011;1680;48.106;11.708;2023-08-17T14:37:47;10.60;;;9.80;;
1831;SDS011;1680;48.106;11.708;2023-08-17T14:40:15;10.97;;;9.97;;
1831;SDS011;1680;48.106;11.708;2023-08-17T14:42:42;9.90;;;9.20;;
1831;SDS011;1680;48.106;11.708;2023-08-17T14:45:10;10.67;;;9.77;;
1831;SDS011;1680;48.106;11.708;2023-08-17T14:47:38;10.27;;;9.37;;
1831;SDS011;1680;48.106;11.708;2023-08-17T14:50:05;10.47;;;9.73;;
1831;SDS011;1680;48.106;11.708;2023-08-17T14:52:33;10.47;;;9.70;;
1831;SDS011;1680;48.106;11.708;2023-08-17T14:55:00;9.70;;;8.90;;
1831;SDS011;1680;48.106;11.708;2023-08-17T14:57:29;8.43;;;7.90;;
1831;SDS011;1680;48.106;11.708;2023-08-17T14:59:56;9.37;;;8.67;;
1831;SDS011;1680;48.106;11.708;2023-08-17T15:02:24;9.00;;;8.40;;
1831;SDS011;1680;48.106;11.708;2023-08-17T15:04:51;9.17;;;8.57;;
1831;SDS011;1680;48.106;11.708;2023-08-17T15:07:18;9.10;;;8.30;;